Time;durP1;ratioP1;P1;durP2;ratioP2;P2;SDS_P1;SDS_P2;PMS_P1;PMS_P2;Temp;Humidity;BMP_temperature;BMP_pressure;BME280_temperature;BME280_humidity;BME280_pressure;Samples;Min_cycle;Max_cycle;Signal;HPM_P1;HPM_P2
2021/12/08 00:02:20;;;;;;;10.32;5.60;;;2.50;99.90;;;;;;5090962;28;20025;-79
2021/12/08 00:04:46;;;;;;;10.80;5.97;;;2.60;99.90;;;;;;5075362;28;20020;-79
2021/12/08 00:07:12;;;;;;;12.38;5.50;;;2.50;99.90;;;;;;5091061;28;20032;-79
2021/12/08 00:14:54;;;;;;;10.13;5.53;;;2.20;99.90;;;;;;5075695;28;20031;-80
2021/12/08 00:17:20;;;;;;;10.65;4.45;;;2.10;99.90;;;;;;5075079;28;20547;-79
2021/12/08 00:19:46;;;;;;;11.70;5.38;;;2.10;99.90;;;;;;5090596;28;20111;-79
2021/12/08 00:22:12;;;;;;;8.35;4.70;;;2.10;99.90;;;;;;5090577;28;20028;-80
2021/12/08 00:24:38;;;;;;;10.68;4.70;;;2.20;99.90;;;;;;5075018;28;20021;-79
2021/12/08 00:27:04;;;;;;;8.35;4.35;;;2.10;99.90;;;;;;5090490;28;20077;-79
2021/12/08 00:29:30;;;;;;;9.68;4.82;;;2.10;99.90;;;;;;5090389;28;20029;-79
2021/12/08 00:31:56;;;;;;;8.30;4.57;;;2.10;99.90;;;;;;5090324;28;20021;-80
2021/12/08 00:34:22;;;;;;;6.82;4.07;;;2.30;99.90;;;;;;5090261;28;20400;-79
2021/12/08 00:36:51;;;;;;;9.95;4.38;;;2.20;99.90;;;;;;5090272;28;20017;-79
2021/12/08 00:39:17;;;;;;;8.88;4.50;;;2.30;99.90;;;;;;5090083;28;20107;-79
2021/12/08 00:41:43;;;;;;;11.50;4.18;;;2.40;99.90;;;;;;5090217;28;20024;-79
2021/12/08 00:44:10;;;;;;;8.48;4.38;;;2.30;99.90;;;;;;5089671;28;20523;-79
2021/12/08 00:46:37;;;;;;;10.40;4.88;;;2.30;99.90;;;;;;5090089;28;20070;-79
2021/12/08 00:49:05;;;;;;;8.70;4.82;;;2.40;99.90;;;;;;5074696;28;20369;-79
2021/12/08 00:51:31;;;;;;;10.90;5.03;;;2.40;99.90;;;;;;5090033;28;20431;-79
2021/12/08 00:53:57;;;;;;;9.15;5.05;;;2.20;99.90;;;;;;5090000;28;20016;-79
2021/12/08 00:56:23;;;;;;;9.20;5.30;;;2.30;99.90;;;;;;5074297;28;20029;-79
2021/12/08 00:58:49;;;;;;;10.15;4.97;;;2.30;99.90;;;;;;5074239;28;20023;-79
2021/12/08 01:01:15;;;;;;;11.63;4.90;;;2.40;99.90;;;;;;5074192;28;20021;-79
2021/12/08 01:03:41;;;;;;;8.48;4.95;;;2.40;99.90;;;;;;5089784;28;20024;-79
2021/12/08 01:06:07;;;;;;;8.45;4.47;;;2.40;99.90;;;;;;5074144;28;20020;-79
2021/12/08 01:08:34;;;;;;;7.57;4.20;;;2.30;99.90;;;;;;5089683;28;20446;-79
2021/12/08 01:11:08;;;;;;;6.35;3.75;;;2.40;99.90;;;;;;5073930;28;20032;-79
2021/12/08 01:13:34;;;;;;;7.32;3.97;;;2.50;99.90;;;;;;5073975;28;20021;-78
2021/12/08 01:16:00;;;;;;;18.67;7.68;;;2.50;99.90;;;;;;5073900;28;20504;-79
2021/12/08 01:18:28;;;;;;;15.73;4.70;;;2.50;99.90;;;;;;5073859;28;20021;-79
2021/12/08 01:20:57;;;;;;;7.65;3.95;;;2.40;99.90;;;;;;5089482;28;20035;-79
2021/12/08 01:23:23;;;;;;;7.43;3.38;;;2.40;99.90;;;;;;5089459;28;20117;-79
2021/12/08 01:25:49;;;;;;;6.45;4.00;;;2.50;99.90;;;;;;5089337;28;20035;-78
2021/12/08 01:28:19;;;;;;;6.88;3.20;;;2.60;99.90;;;;;;5073692;28;20108;-78
2021/12/08 01:30:45;;;;;;;5.35;3.00;;;2.70;99.90;;;;;;5073935;28;20441;-79
2021/12/08 01:33:11;;;;;;;5.47;3.20;;;2.70;99.90;;;;;;5089247;28;20082;-79
2021/12/08 01:35:37;;;;;;;5.72;3.50;;;2.60;99.90;;;;;;5073636;28;20476;-79
2021/12/08 01:38:03;;;;;;;6.20;3.30;;;2.60;99.90;;;;;;5088998;28;20048;-79
2021/12/08 01:40:29;;;;;;;5.32;3.25;;;2.60;99.90;;;;;;5073559;28;20420;-79
2021/12/08 01:42:57;;;;;;;5.30;2.67;;;2.60;99.90;;;;;;5089159;28;20020;-79
2021/12/08 01:48:15;;;;;;;6.60;3.10;;;2.60;99.90;;;;;;5073924;28;20067;-79
2021/12/08 01:50:43;;;;;;;6.72;2.70;;;2.60;99.90;;;;;;5073635;28;20024;-79
2021/12/08 01:53:09;;;;;;;7.03;2.63;;;2.60;99.90;;;;;;5088969;28;20032;-79
2021/12/08 01:55:36;;;;;;;4.90;2.67;;;2.50;99.90;;;;;;5088686;28;20021;-79
2021/12/08 01:58:04;;;;;;;6.13;3.10;;;2.60;99.90;;;;;;5088409;28;20028;-78
2021/12/08 02:00:34;;;;;;;4.93;3.22;;;2.60;99.90;;;;;;5073365;28;20025;-79
2021/12/08 02:03:00;;;;;;;6.00;2.45;;;2.60;99.90;;;;;;5073661;28;20025;-79
2021/12/08 02:05:26;;;;;;;3.17;2.20;;;2.70;99.90;;;;;;5088848;28;20439;-79
2021/12/08 02:07:53;;;;;;;7.10;3.15;;;2.60;99.90;;;;;;5088822;28;20032;-79
2021/12/08 02:10:19;;;;;;;5.60;2.38;;;2.50;99.90;;;;;;5088790;28;20029;-79
2021/12/08 02:12:46;;;;;;;5.85;2.75;;;2.60;99.90;;;;;;5088794;28;20033;-79
2021/12/08 02:15:16;;;;;;;4.78;2.30;;;2.60;99.90;;;;;;5088778;28;20020;-79
2021/12/08 02:17:46;;;;;;;4.70;2.80;;;2.70;99.90;;;;;;5088726;28;20032;-79
2021/12/08 02:20:13;;;;;;;4.30;2.10;;;2.80;99.90;;;;;;5073074;28;20112;-79
2021/12/08 02:22:39;;;;;;;3.63;2.10;;;2.80;99.90;;;;;;5088675;28;20079;-80
2021/12/08 02:25:08;;;;;;;7.70;2.60;;;2.80;99.90;;;;;;5088688;28;20029;-79
2021/12/08 02:27:34;;;;;;;7.55;2.75;;;2.80;99.90;;;;;;5088654;28;20400;-79
2021/12/08 02:30:12;;;;;;;4.18;2.53;;;2.80;99.90;;;;;;5072981;28;20433;-79
2021/12/08 02:48:59;;;;;;;6.88;3.25;;;2.60;99.90;;;;;;5093475;28;20031;-80
2021/12/08 02:51:24;;;;;;;4.97;3.35;;;2.60;99.90;;;;;;5093004;28;20024;-79
2021/12/08 02:53:50;;;;;;;6.70;3.38;;;2.60;99.90;;;;;;5074958;28;20392;-80
2021/12/08 02:56:17;;;;;;;6.40;3.42;;;2.60;99.90;;;;;;5074838;28;20475;-80
2021/12/08 02:58:44;;;;;;;6.28;3.08;;;2.60;99.90;;;;;;5074798;28;20089;-80
2021/12/08 03:01:11;;;;;;;5.82;3.50;;;2.60;99.90;;;;;;5074781;28;20111;-79
2021/12/08 03:03:38;;;;;;;9.82;3.17;;;2.70;99.90;;;;;;5092925;28;20488;-80
2021/12/08 03:06:04;;;;;;;4.63;2.92;;;2.60;99.90;;;;;;5074778;28;20024;-79
2021/12/08 03:08:30;;;;;;;6.68;3.60;;;2.70;99.90;;;;;;5094904;28;20081;-80
2021/12/08 03:10:56;;;;;;;5.68;3.58;;;2.80;99.90;;;;;;5078436;28;20028;-79
2021/12/08 03:13:33;;;;;;;6.70;3.30;;;2.80;99.90;;;;;;5078376;28;20048;-80
2021/12/08 03:16:00;;;;;;;6.78;3.55;;;2.90;99.90;;;;;;5096592;28;20075;-80
2021/12/08 03:18:33;;;;;;;6.15;3.95;;;2.80;99.90;;;;;;5078296;28;20032;-79
2021/12/08 03:20:59;;;;;;;6.68;3.95;;;2.80;99.90;;;;;;5096508;28;20024;-79
2021/12/08 03:23:32;;;;;;;7.47;4.05;;;2.80;99.90;;;;;;5078234;28;20047;-79
2021/12/08 03:26:00;;;;;;;6.20;3.63;;;2.70;99.90;;;;;;5078183;28;20047;-80
2021/12/08 03:28:30;;;;;;;7.57;4.72;;;2.80;99.90;;;;;;5096726;28;20021;-80
2021/12/08 03:31:08;;;;;;;6.93;4.95;;;2.60;99.90;;;;;;5078088;28;20496;-79
2021/12/08 03:33:34;;;;;;;6.93;4.30;;;2.70;99.90;;;;;;5078107;28;20357;-80
2021/12/08 03:36:00;;;;;;;7.55;5.03;;;2.60;99.90;;;;;;5096421;28;20031;-79
2021/12/08 03:38:27;;;;;;;8.27;5.35;;;2.60;99.90;;;;;;5095932;28;20121;-79
2021/12/08 03:40:56;;;;;;;8.07;4.97;;;2.60;99.90;;;;;;5096060;28;20039;-79
2021/12/08 03:43:21;;;;;;;13.43;5.47;;;2.60;99.90;;;;;;5096280;28;20027;-79
2021/12/08 03:45:49;;;;;;;13.02;5.55;;;2.60;99.90;;;;;;5077912;28;20032;-79
2021/12/08 03:48:26;;;;;;;7.03;4.30;;;2.70;99.90;;;;;;5078243;28;20475;-80
2021/12/08 03:50:53;;;;;;;9.65;5.28;;;2.80;99.90;;;;;;5077709;28;20032;-79
2021/12/08 03:53:19;;;;;;;10.98;5.28;;;2.70;99.90;;;;;;5095880;28;20399;-80
2021/12/08 03:55:47;;;;;;;10.25;5.32;;;2.70;99.90;;;;;;5077592;28;20061;-79
2021/12/08 03:58:14;;;;;;;8.75;5.25;;;2.70;99.90;;;;;;5077567;28;20020;-79
2021/12/08 04:00:43;;;;;;;6.88;5.05;;;2.70;99.90;;;;;;5095699;28;20024;-80
2021/12/08 04:03:09;;;;;;;9.82;6.25;;;2.70;99.90;;;;;;5077681;28;20020;-79
2021/12/08 04:05:55;;;;;;;9.88;6.18;;;2.60;99.90;;;;;;5077472;28;20036;-79
2021/12/08 04:08:31;;;;;;;11.95;6.15;;;2.60;99.90;;;;;;5095863;28;20027;-79
2021/12/08 04:10:59;;;;;;;8.68;5.78;;;2.50;99.90;;;;;;5077326;28;20052;-79
2021/12/08 04:13:32;;;;;;;10.98;6.60;;;2.60;99.90;;;;;;5095408;28;20016;-79
2021/12/08 04:15:58;;;;;;;9.13;5.10;;;2.60;99.90;;;;;;5077291;28;20503;-79
2021/12/08 04:18:25;;;;;;;11.07;6.25;;;2.60;99.90;;;;;;5077080;28;20017;-79
2021/12/08 04:20:55;;;;;;;10.75;7.13;;;2.60;99.90;;;;;;5076130;28;20028;-79
2021/12/08 04:23:22;;;;;;;12.65;7.93;;;2.60;99.90;;;;;;5076981;28;20031;-79
2021/12/08 04:25:53;;;;;;;11.88;7.38;;;2.50;99.90;;;;;;5077232;28;20020;-79
2021/12/08 04:28:24;;;;;;;10.98;6.35;;;2.50;99.90;;;;;;5077166;28;20046;-79
2021/12/08 04:31:17;;;;;;;13.30;7.20;;;2.50;99.90;;;;;;5095310;28;20028;-79
2021/12/08 04:33:44;;;;;;;8.98;5.63;;;2.60;99.90;;;;;;5077016;28;20103;-79
2021/12/08 04:36:13;;;;;;;10.65;6.20;;;2.60;99.90;;;;;;5076794;28;20062;-80
2021/12/08 04:38:43;;;;;;;11.40;7.15;;;2.60;99.90;;;;;;5076588;28;20047;-79
2021/12/08 04:41:15;;;;;;;8.32;5.93;;;2.60;99.90;;;;;;5076753;28;20028;-79
2021/12/08 04:43:55;;;;;;;10.05;6.38;;;2.60;99.90;;;;;;5094928;28;20020;-79
2021/12/08 04:49:34;;;;;;;12.25;7.82;;;2.50;99.90;;;;;;5094602;28;20028;-79
2021/12/08 04:52:08;;;;;;;11.43;8.25;;;2.60;99.90;;;;;;5094473;28;20031;-79
2021/12/08 05:06:00;;;;;;;10.10;6.72;;;2.70;99.90;;;;;;5094735;28;19946;-79
2021/12/08 05:08:34;;;;;;;11.23;6.00;;;2.80;99.90;;;;;;5094109;28;20080;-79
2021/12/08 05:11:00;;;;;;;9.80;7.13;;;2.80;99.90;;;;;;5076083;28;20047;-79
2021/12/08 05:13:26;;;;;;;11.05;6.80;;;2.80;99.90;;;;;;5076043;28;20020;-79
2021/12/08 05:15:56;;;;;;;11.93;6.90;;;2.90;99.90;;;;;;5094242;28;20099;-79
2021/12/08 05:18:44;;;;;;;12.27;7.32;;;2.90;99.90;;;;;;5094174;28;20022;-79
2021/12/08 05:21:20;;;;;;;12.20;7.20;;;2.80;99.90;;;;;;5075931;28;20052;-78
2021/12/08 05:23:51;;;;;;;9.65;6.90;;;2.80;99.90;;;;;;5075861;28;20115;-79
2021/12/08 05:26:31;;;;;;;9.55;5.65;;;2.80;99.90;;;;;;5094052;28;20024;-78
2021/12/08 05:29:01;;;;;;;12.75;7.18;;;2.80;99.90;;;;;;5075805;28;20024;-78
2021/12/08 05:31:30;;;;;;;13.43;8.10;;;2.70;99.90;;;;;;5075569;28;20438;-79
2021/12/08 05:33:57;;;;;;;14.70;8.50;;;2.70;99.90;;;;;;5075697;28;20024;-79
2021/12/08 05:36:24;;;;;;;8.05;6.43;;;2.70;99.90;;;;;;5075623;28;20028;-78
2021/12/08 05:38:52;;;;;;;10.95;7.95;;;2.70;99.90;;;;;;5075406;28;20048;-79
2021/12/08 05:41:26;;;;;;;8.27;5.93;;;2.70;99.90;;;;;;5093782;28;20432;-79
2021/12/08 05:43:53;;;;;;;12.95;8.77;;;2.80;99.90;;;;;;5075663;28;20035;-79
2021/12/08 05:46:21;;;;;;;7.90;5.70;;;2.70;99.90;;;;;;5075533;28;20028;-79
2021/12/08 05:48:48;;;;;;;9.43;6.45;;;2.80;99.90;;;;;;5075417;28;20031;-79
2021/12/08 05:51:19;;;;;;;9.88;7.82;;;2.80;99.90;;;;;;5093597;28;20546;-79
2021/12/08 05:53:48;;;;;;;7.45;5.80;;;2.80;99.90;;;;;;5075575;28;20020;-79
2021/12/08 05:56:14;;;;;;;8.35;6.05;;;2.80;99.90;;;;;;5075496;28;20039;-79
2021/12/08 05:58:40;;;;;;;15.38;8.60;;;3.00;99.90;;;;;;5075730;28;20153;-79
2021/12/08 06:01:12;;;;;;;11.65;8.10;;;3.00;99.90;;;;;;5075416;28;20036;-79
2021/12/08 06:03:41;;;;;;;11.15;7.57;;;2.90;99.90;;;;;;5075401;28;20028;-79
2021/12/08 06:06:07;;;;;;;10.65;7.57;;;2.80;99.90;;;;;;5058738;28;20039;-79
2021/12/08 06:08:33;;;;;;;9.18;7.10;;;2.80;99.90;;;;;;5075315;28;20032;-79
2021/12/08 06:11:01;;;;;;;13.35;8.05;;;2.80;99.90;;;;;;5093369;28;20379;-79
2021/12/08 06:13:27;;;;;;;13.00;8.15;;;2.90;99.90;;;;;;5075100;28;20016;-79
2021/12/08 06:15:53;;;;;;;14.38;8.45;;;2.90;99.90;;;;;;5075201;28;20528;-79
2021/12/08 06:18:22;;;;;;;13.10;8.43;;;2.80;99.90;;;;;;5093292;28;20028;-79
2021/12/08 06:20:56;;;;;;;11.40;7.20;;;2.80;99.90;;;;;;5093545;28;20498;-77
2021/12/08 06:23:21;;;;;;;11.30;7.43;;;2.80;99.90;;;;;;5075205;28;20028;-78
2021/12/08 06:25:47;;;;;;;13.68;8.77;;;2.80;99.90;;;;;;5075177;28;20487;-79
2021/12/08 06:28:13;;;;;;;12.25;8.20;;;2.80;99.90;;;;;;5074997;28;20488;-78
2021/12/08 06:30:45;;;;;;;14.80;9.40;;;2.80;99.90;;;;;;5093349;28;20107;-79
2021/12/08 06:33:13;;;;;;;12.43;9.00;;;2.80;99.90;;;;;;5075113;28;20115;-78
2021/12/08 06:35:48;;;;;;;11.43;7.38;;;2.90;99.90;;;;;;5075065;28;20024;-79
2021/12/08 06:38:16;;;;;;;10.18;7.80;;;2.90;99.90;;;;;;5074764;28;20044;-79
2021/12/08 06:40:53;;;;;;;11.07;8.20;;;2.80;99.90;;;;;;5074996;28;20024;-80
2021/12/08 06:43:22;;;;;;;16.25;11.48;;;2.90;99.90;;;;;;5095244;28;20020;-79
2021/12/08 06:45:50;;;;;;;12.13;8.90;;;2.80;99.90;;;;;;5078981;28;20020;-80
2021/12/08 06:48:23;;;;;;;14.15;10.40;;;2.80;99.90;;;;;;5097024;28;20446;-79
2021/12/08 06:50:54;;;;;;;14.50;10.55;;;2.80;99.90;;;;;;5096974;28;20024;-79
2021/12/08 06:53:20;;;;;;;16.17;9.18;;;2.70;99.90;;;;;;5078843;28;20035;-79
2021/12/08 06:55:56;;;;;;;15.80;10.00;;;2.70;99.90;;;;;;5078771;28;20498;-80
2021/12/08 06:58:26;;;;;;;11.45;8.52;;;2.70;99.90;;;;;;5097232;28;20055;-79
2021/12/08 07:03:46;;;;;;;14.70;10.02;;;2.80;99.90;;;;;;5096827;28;20041;-79
2021/12/08 07:06:43;;;;;;;16.08;11.13;;;2.80;99.90;;;;;;5078616;28;20626;-79
2021/12/08 07:09:14;;;;;;;20.70;11.90;;;2.70;99.90;;;;;;5096712;28;20099;-79
2021/12/08 07:11:40;;;;;;;13.43;9.45;;;2.70;99.90;;;;;;5096558;28;20429;-79
2021/12/08 07:14:08;;;;;;;14.57;10.30;;;2.80;99.90;;;;;;5078402;28;20099;-79
2021/12/08 07:16:38;;;;;;;23.70;14.80;;;2.70;99.90;;;;;;5096529;28;20091;-79
2021/12/08 07:19:32;;;;;;;23.33;15.43;;;2.80;99.90;;;;;;5096506;28;20024;-80
2021/12/08 07:22:00;;;;;;;14.25;10.52;;;2.70;99.90;;;;;;5078248;28;20430;-80
2021/12/08 07:24:30;;;;;;;13.82;9.45;;;2.80;99.90;;;;;;5078200;28;20415;-80
2021/12/08 07:27:02;;;;;;;19.25;11.38;;;2.80;99.90;;;;;;5078161;28;20387;-80
2021/12/08 07:29:31;;;;;;;13.38;10.30;;;2.80;99.90;;;;;;5096278;28;20017;-80
2021/12/08 07:32:02;;;;;;;14.30;10.05;;;2.80;99.90;;;;;;5078063;28;20499;-80
2021/12/08 07:34:29;;;;;;;18.52;13.00;;;2.80;99.90;;;;;;5096288;28;20166;-80
2021/12/08 07:37:01;;;;;;;15.32;9.93;;;2.80;99.90;;;;;;5078002;28;20048;-80
2021/12/08 07:39:42;;;;;;;16.80;11.25;;;2.80;99.90;;;;;;5077813;28;20428;-79
2021/12/08 07:42:33;;;;;;;17.25;11.88;;;2.80;99.90;;;;;;5077969;28;20112;-80
2021/12/08 07:45:04;;;;;;;12.55;8.25;;;2.80;99.90;;;;;;5069605;28;20060;-80
2021/12/08 07:47:31;;;;;;;17.27;9.48;;;2.80;99.90;;;;;;5077751;28;20016;-78
2021/12/08 07:50:08;;;;;;;17.83;11.30;;;2.90;99.90;;;;;;5077788;28;20067;-78
2021/12/08 07:52:40;;;;;;;11.90;9.32;;;2.90;99.90;;;;;;5077705;28;20031;-78
2021/12/08 07:55:14;;;;;;;13.88;10.68;;;2.80;99.90;;;;;;5076290;28;20035;-78
2021/12/08 07:57:41;;;;;;;;;;;2.80;99.90;;;;;;5078167;28;20065;-78
2021/12/08 08:00:20;;;;;;;10.23;7.28;;;2.80;99.90;;;;;;5077558;28;20426;-78
2021/12/08 08:02:46;;;;;;;12.52;9.95;;;2.90;99.90;;;;;;5077541;28;20115;-78
2021/12/08 08:05:14;;;;;;;13.32;8.73;;;3.00;99.90;;;;;;5077479;28;20114;-78
2021/12/08 08:07:42;;;;;;;13.43;8.98;;;3.00;99.90;;;;;;5095599;28;20425;-78
2021/12/08 08:10:14;;;;;;;17.10;9.13;;;3.00;99.90;;;;;;5077304;28;20024;-78
2021/12/08 08:12:43;;;;;;;12.00;8.90;;;3.00;99.90;;;;;;5077332;28;20024;-78
2021/12/08 08:15:15;;;;;;;12.05;8.55;;;2.90;99.90;;;;;;5095465;28;20028;-78
2021/12/08 08:17:44;;;;;;;12.18;8.27;;;2.90;99.90;;;;;;5077290;28;20020;-78
2021/12/08 08:20:21;;;;;;;13.15;8.02;;;3.00;99.90;;;;;;5095558;28;20361;-78
2021/12/08 08:22:47;;;;;;;14.80;8.07;;;3.10;99.90;;;;;;5077108;28;20024;-77
2021/12/08 08:25:17;;;;;;;13.55;8.38;;;3.10;99.90;;;;;;5095526;28;20043;-78
2021/12/08 08:27:43;;;;;;;14.05;7.65;;;3.00;99.90;;;;;;5077011;28;20508;-77
2021/12/08 08:30:12;;;;;;;13.95;8.00;;;3.10;99.90;;;;;;5076914;28;20369;-77
2021/12/08 08:32:41;;;;;;;11.20;7.95;;;3.10;99.90;;;;;;5076915;28;20114;-78
2021/12/08 08:35:18;;;;;;;11.48;7.70;;;3.10;99.90;;;;;;5076880;28;20020;-77
2021/12/08 08:37:47;;;;;;;10.63;7.55;;;3.10;99.90;;;;;;5076589;28;20161;-78
2021/12/08 08:40:25;;;;;;;11.13;8.18;;;3.10;99.90;;;;;;5094954;28;20039;-78
2021/12/08 08:42:52;;;;;;;11.65;7.72;;;3.10;99.90;;;;;;5060295;28;20032;-78
2021/12/08 08:45:39;;;;;;;10.85;7.07;;;3.20;99.90;;;;;;5076635;28;20391;-78
2021/12/08 08:48:13;;;;;;;9.63;7.63;;;3.20;99.90;;;;;;5076609;28;20046;-78
2021/12/08 08:50:59;;;;;;;11.55;6.88;;;3.20;99.90;;;;;;5076442;28;20521;-78
2021/12/08 08:53:29;;;;;;;15.82;7.93;;;3.20;99.90;;;;;;5075959;28;20039;-78
2021/12/08 08:56:04;;;;;;;13.32;9.27;;;3.20;99.90;;;;;;5076439;28;20028;-78
2021/12/08 08:58:31;;;;;;;8.73;6.72;;;3.30;99.90;;;;;;5076390;28;20110;-78
2021/12/08 09:01:04;;;;;;;11.88;7.90;;;3.30;99.90;;;;;;5076626;28;20028;-78
2021/12/08 09:03:34;;;;;;;11.25;7.13;;;3.30;99.90;;;;;;5076392;28;20030;-78
2021/12/08 09:06:11;;;;;;;11.02;7.82;;;3.30;99.90;;;;;;5075871;28;20118;-78
2021/12/08 09:08:39;;;;;;;10.70;6.95;;;3.30;99.90;;;;;;5094657;28;20024;-78
2021/12/08 09:11:16;;;;;;;9.48;7.35;;;3.30;99.90;;;;;;5076010;28;20106;-78
2021/12/08 09:13:54;;;;;;;10.35;6.97;;;3.30;99.90;;;;;;5076137;28;20058;-78
2021/12/08 09:16:33;;;;;;;9.82;7.38;;;3.30;99.90;;;;;;5076088;28;20024;-78
2021/12/08 09:19:16;;;;;;;11.88;7.72;;;3.40;99.90;;;;;;5076032;28;20056;-78
2021/12/08 09:22:05;;;;;;;8.95;6.85;;;3.40;99.90;;;;;;5094451;28;20028;-78
2021/12/08 09:24:38;;;;;;;10.40;7.45;;;3.40;99.90;;;;;;5094127;28;20024;-78
2021/12/08 09:27:08;;;;;;;9.45;5.68;;;3.40;99.90;;;;;;5075913;28;20480;-77
2021/12/08 09:29:44;;;;;;;10.80;6.57;;;3.30;99.90;;;;;;5075725;28;20024;-78
2021/12/08 09:32:29;;;;;;;10.65;5.97;;;3.30;99.90;;;;;;5094024;28;20020;-78
2021/12/08 09:34:59;;;;;;;7.05;5.15;;;3.30;99.90;;;;;;5059731;28;20059;-78
2021/12/08 09:37:30;;;;;;;11.45;6.15;;;3.30;99.90;;;;;;5075657;28;20487;-78
2021/12/08 09:40:13;;;;;;;6.47;5.18;;;3.40;99.90;;;;;;5075773;28;20522;-78
2021/12/08 09:42:46;;;;;;;6.75;4.30;;;3.40;99.90;;;;;;5075656;28;20115;-78
2021/12/08 09:45:31;;;;;;;6.53;5.07;;;3.50;99.90;;;;;;5075659;28;20032;-78
2021/12/08 09:48:00;;;;;;;;;;;3.50;99.90;;;;;;5075993;28;20411;-78
2021/12/08 09:50:25;;;;;;;9.55;4.95;;;3.50;99.90;;;;;;5093864;28;19955;-78
2021/12/08 09:52:51;;;;;;;8.20;4.80;;;3.50;99.90;;;;;;5075417;28;20538;-78
2021/12/08 09:55:18;;;;;;;10.73;5.18;;;3.40;99.90;;;;;;5075989;28;20020;-78
2021/12/08 09:57:45;;;;;;;10.20;6.07;;;3.50;99.90;;;;;;5075436;28;20016;-80
2021/12/08 10:00:18;;;;;;;5.85;4.70;;;3.50;99.90;;;;;;5075361;28;20035;-81
2021/12/08 10:02:44;;;;;;;14.80;7.20;;;3.60;99.90;;;;;;5075392;28;20476;-80
2021/12/08 10:05:15;;;;;;;10.23;6.05;;;3.60;99.90;;;;;;5075281;28;20069;-80
2021/12/08 10:07:43;;;;;;;29.10;12.98;;;3.60;99.90;;;;;;5075300;28;20391;-80
2021/12/08 10:10:11;;;;;;;7.32;5.25;;;3.60;99.90;;;;;;5075248;28;20024;-81
2021/12/08 10:12:37;;;;;;;8.68;6.03;;;3.60;99.90;;;;;;5075273;28;20016;-81
2021/12/08 10:15:07;;;;;;;6.97;5.35;;;3.70;99.90;;;;;;5093355;28;20020;-81
2021/12/08 10:17:33;;;;;;;6.75;5.00;;;3.70;99.90;;;;;;5074359;28;20121;-81
2021/12/08 10:20:17;;;;;;;8.25;5.25;;;3.70;99.90;;;;;;5075189;28;20059;-80
2021/12/08 10:22:48;;;;;;;7.00;4.50;;;3.70;99.90;;;;;;5075253;28;20440;-81
2021/12/08 10:25:23;;;;;;;8.02;4.80;;;3.70;99.90;;;;;;5075255;28;20067;-81
2021/12/08 10:28:09;;;;;;;;;;;3.60;99.90;;;;;;5075657;28;20032;-82
2021/12/08 10:30:45;;;;;;;6.85;5.10;;;3.60;99.90;;;;;;5075019;28;20367;-81
2021/12/08 10:33:38;;;;;;;10.77;6.28;;;3.70;99.90;;;;;;5075102;28;20490;-80
2021/12/08 10:36:19;;;;;;;9.82;5.18;;;3.70;99.90;;;;;;5093163;28;20425;-81
2021/12/08 10:38:45;;;;;;;9.88;6.65;;;3.60;99.90;;;;;;5074801;28;20036;-81
2021/12/08 10:41:11;;;;;;;10.32;6.00;;;3.70;99.90;;;;;;5074891;28;20020;-80
2021/12/08 10:43:37;;;;;;;8.70;6.20;;;3.70;99.90;;;;;;5074965;28;20032;-81
2021/12/08 10:46:07;;;;;;;10.18;6.80;;;3.70;99.90;;;;;;5093019;28;20401;-80
2021/12/08 10:48:37;;;;;;;14.52;6.63;;;3.80;99.90;;;;;;5075071;28;20032;-80
2021/12/08 10:56:47;;;;;;;8.32;5.60;;;4.00;99.90;;;;;;5093432;28;20031;-81
2021/12/08 10:59:13;;;;;;;11.13;7.47;;;3.90;99.90;;;;;;5074723;28;20031;-81
2021/12/08 11:01:39;;;;;;;9.40;5.55;;;3.90;99.90;;;;;;5092841;28;20468;-80
2021/12/08 11:04:11;;;;;;;8.88;6.28;;;3.90;99.90;;;;;;5092877;28;20070;-80
2021/12/08 11:06:39;;;;;;;8.70;6.00;;;3.90;99.90;;;;;;5075564;28;20521;-80
2021/12/08 11:09:12;;;;;;;8.40;5.72;;;3.90;99.90;;;;;;5092808;28;20475;-81
2021/12/08 11:11:43;;;;;;;10.57;6.68;;;3.90;99.90;;;;;;5074642;28;20399;-80
2021/12/08 11:14:11;;;;;;;6.78;4.55;;;4.00;99.90;;;;;;5093120;28;20433;-81
2021/12/08 11:16:42;;;;;;;8.07;6.00;;;4.00;99.90;;;;;;5074672;28;20031;-80
2021/12/08 11:19:20;;;;;;;7.60;5.60;;;4.00;99.90;;;;;;5074588;28;20426;-81
2021/12/08 11:21:49;;;;;;;9.38;6.75;;;4.00;99.90;;;;;;5074579;28;20024;-80
2021/12/08 11:24:25;;;;;;;7.40;5.32;;;3.90;99.90;;;;;;5092610;28;20020;-80
2021/12/08 11:26:52;;;;;;;8.38;6.78;;;3.90;99.90;;;;;;5092721;28;20028;-80
2021/12/08 11:29:24;;;;;;;8.45;5.63;;;3.90;99.90;;;;;;5076118;28;20118;-80
2021/12/08 11:31:54;;;;;;;9.18;6.22;;;3.90;99.90;;;;;;5096213;28;20109;-81
2021/12/08 11:34:21;;;;;;;14.35;8.43;;;3.90;99.90;;;;;;5078055;28;20020;-80
2021/12/08 11:36:51;;;;;;;15.05;8.50;;;3.90;99.90;;;;;;5096171;28;20024;-81
2021/12/08 11:39:24;;;;;;;10.13;6.95;;;3.90;99.90;;;;;;5074518;28;20047;-81
2021/12/08 11:41:54;;;;;;;12.82;9.57;;;4.00;99.90;;;;;;5091446;28;20119;-80
2021/12/08 11:44:27;;;;;;;11.55;7.55;;;4.00;99.90;;;;;;5091398;28;20506;-81
2021/12/08 11:47:05;;;;;;;14.40;8.77;;;4.00;99.90;;;;;;5091248;28;20082;-80
2021/12/08 11:49:32;;;;;;;11.68;8.07;;;3.90;99.90;;;;;;5075617;28;20025;-80
2021/12/08 11:52:15;;;;;;;12.57;7.40;;;3.90;99.90;;;;;;5075519;28;20427;-80
2021/12/08 11:55:02;;;;;;;10.10;7.45;;;3.90;99.90;;;;;;5075596;28;20127;-80
2021/12/08 11:57:37;;;;;;;11.70;7.82;;;3.80;99.90;;;;;;5075844;28;20025;-80
2021/12/08 12:00:18;;;;;;;11.52;7.35;;;3.90;99.90;;;;;;5091044;28;20445;-80
2021/12/08 12:02:56;;;;;;;7.55;4.78;;;3.90;99.90;;;;;;5090930;28;20125;-80
2021/12/08 12:05:27;;;;;;;14.40;7.97;;;4.00;99.90;;;;;;5075316;28;20048;-80
2021/12/08 12:07:54;;;;;;;10.18;7.55;;;4.00;99.90;;;;;;5075379;28;20036;-80
2021/12/08 12:10:23;;;;;;;13.05;7.75;;;3.90;99.90;;;;;;5075096;28;20112;-80
2021/12/08 12:12:50;;;;;;;16.25;8.27;;;3.90;99.90;;;;;;5075193;28;20021;-80
2021/12/08 12:15:19;;;;;;;14.98;8.45;;;3.90;99.90;;;;;;5075096;28;20023;-81
2021/12/08 12:17:47;;;;;;;13.43;8.43;;;3.90;99.90;;;;;;5090704;28;20056;-81
2021/12/08 12:20:27;;;;;;;14.63;8.27;;;4.00;99.90;;;;;;5090607;28;20027;-81
2021/12/08 12:23:08;;;;;;;30.00;16.17;;;4.00;99.90;;;;;;5075019;28;20112;-81
2021/12/08 12:26:04;;;;;;;17.25;9.50;;;4.00;99.90;;;;;;5075008;28;20020;-80
2021/12/08 12:29:06;;;;;;;8.95;6.18;;;4.00;99.90;;;;;;5090411;28;20020;-81
2021/12/08 12:31:53;;;;;;;9.32;6.30;;;4.00;99.90;;;;;;5090354;28;20020;-80
2021/12/08 12:34:33;;;;;;;8.80;7.07;;;4.00;99.90;;;;;;5090410;28;20025;-81
2021/12/08 12:37:20;;;;;;;8.75;6.18;;;4.00;99.90;;;;;;5074796;28;20103;-80
2021/12/08 12:39:51;;;;;;;11.75;7.15;;;4.00;99.90;;;;;;5059267;28;20086;-81
2021/12/08 12:42:19;;;;;;;6.47;4.68;;;4.00;99.90;;;;;;5089815;28;20082;-81
2021/12/08 12:45:01;;;;;;;11.52;7.80;;;4.00;99.90;;;;;;5090177;28;20051;-80
2021/12/08 12:47:30;;;;;;;8.63;6.45;;;4.10;99.90;;;;;;5090081;28;20025;-81
2021/12/08 12:50:09;;;;;;;12.50;7.25;;;4.10;99.90;;;;;;5074492;28;20101;-81
2021/12/08 12:52:36;;;;;;;13.07;7.75;;;4.10;99.90;;;;;;5089973;28;20492;-80
2021/12/08 12:55:30;;;;;;;10.50;6.55;;;4.10;99.90;;;;;;5089967;28;20031;-80
2021/12/08 12:58:02;;;;;;;9.80;6.65;;;4.20;99.90;;;;;;5090186;28;20020;-80
2021/12/08 13:00:32;;;;;;;9.05;6.32;;;4.10;99.90;;;;;;5090733;28;20040;-80
2021/12/08 13:02:59;;;;;;;12.20;7.97;;;4.10;99.90;;;;;;5074220;28;20107;-80
2021/12/08 13:05:46;;;;;;;10.85;8.00;;;4.10;99.90;;;;;;5089715;28;20103;-80
2021/12/08 13:08:11;;;;;;;8.95;7.57;;;4.10;99.90;;;;;;5089785;28;20377;-80
2021/12/08 13:10:39;;;;;;;10.88;8.00;;;4.10;99.90;;;;;;5074246;28;20035;-80
2021/12/08 13:13:23;;;;;;;10.98;8.32;;;4.10;99.90;;;;;;5089637;28;20029;-81
2021/12/08 13:15:49;;;;;;;9.00;5.95;;;4.00;99.90;;;;;;5089651;28;20052;-80
2021/12/08 13:18:19;;;;;;;10.60;7.50;;;4.00;99.90;;;;;;5089529;28;20492;-80
2021/12/08 13:20:58;;;;;;;11.88;7.90;;;4.00;99.90;;;;;;5089484;28;20119;-80
2021/12/08 13:23:30;;;;;;;9.43;6.53;;;4.00;99.90;;;;;;5089447;28;20020;-80
2021/12/08 13:31:37;;;;;;;8.93;6.70;;;4.00;99.90;;;;;;5073874;28;20205;-80
2021/12/08 13:34:04;;;;;;;17.08;11.68;;;4.00;99.90;;;;;;5089389;28;20493;-80
2021/12/08 13:36:34;;;;;;;19.52;13.32;;;4.00;99.90;;;;;;5072399;28;20056;-80
2021/12/08 13:39:28;;;;;;;17.92;12.15;;;4.00;99.90;;;;;;5072119;28;20499;-80
2021/12/08 13:42:11;;;;;;;13.95;10.35;;;3.90;99.90;;;;;;5072214;28;20029;-81
2021/12/08 13:44:55;;;;;;;12.85;8.95;;;3.90;99.90;;;;;;5073502;28;20372;-80
2021/12/08 13:47:41;;;;;;;9.75;7.32;;;3.90;99.90;;;;;;5089082;28;20108;-80
2021/12/08 13:50:10;;;;;;;13.13;8.85;;;3.90;99.90;;;;;;5088940;28;20132;-80
2021/12/08 13:52:39;;;;;;;10.32;7.32;;;3.80;99.90;;;;;;5073275;28;20017;-80
2021/12/08 13:55:08;;;;;;;17.65;10.07;;;3.80;99.90;;;;;;5088843;28;20021;-80
2021/12/08 13:57:41;;;;;;;18.77;12.30;;;3.80;99.90;;;;;;5072034;28;20025;-80
2021/12/08 14:00:24;;;;;;;25.33;16.60;;;3.80;99.90;;;;;;5073363;28;20025;-80
2021/12/08 14:03:18;;;;;;;21.65;13.73;;;3.80;99.90;;;;;;5071994;28;20111;-80
2021/12/08 14:05:56;;;;;;;24.17;13.98;;;3.80;99.90;;;;;;5072058;28;20032;-80